<?xml version="1.0" encoding="UTF-8" standalone="no" ?>
<gpx xmlns="http://www.topografix.com/GPX/1/1" xmlns:xsi="http://www.w3.org/2001/XMLSchema-instance" xsi:schemaLocation="http://www.topografix.com/GPX/1/1 http://www.topografix.com/GPX/1/1/gpx.xsd" version="1.1" creator="VisuGPX - https://www.visugpx.com">
  <metadata>
    <name>ASLPM marche Aytré le 25 janvier 2016</name>
    <desc><![CDATA[ASLPM marche Aytré le 25 01 2016
]]></desc>
  </metadata>
  <trk>
    <name><![CDATA[Aytré Course à pied]]></name>
    <trkseg>
      <trkpt lat="46.12594" lon="-1.12704">
        <ele>1.7999999523163</ele>
        <time>2016-01-25T09:28:48.000Z</time>
      </trkpt>
      <trkpt lat="46.12592" lon="-1.12703">
        <ele>1.7999999523163</ele>
        <time>2016-01-25T09:28:49.000Z</time>
      </trkpt>
      <trkpt lat="46.12589" lon="-1.12701">
        <ele>1.7999999523163</ele>
        <time>2016-01-25T09:28:52.000Z</time>
      </trkpt>
      <trkpt lat="46.12588" lon="-1.127">
        <ele>1.6000000238419</ele>
        <time>2016-01-25T09:28:53.000Z</time>
      </trkpt>
      <trkpt lat="46.12576" lon="-1.12693">
        <ele>2</ele>
        <time>2016-01-25T09:29:03.000Z</time>
      </trkpt>
      <trkpt lat="46.12557" lon="-1.12688">
        <ele>3</ele>
        <time>2016-01-25T09:29:17.000Z</time>
      </trkpt>
      <trkpt lat="46.1254" lon="-1.12693">
        <ele>3</ele>
        <time>2016-01-25T09:29:32.000Z</time>
      </trkpt>
      <trkpt lat="46.12522" lon="-1.12696">
        <ele>3</ele>
        <time>2016-01-25T09:29:45.000Z</time>
      </trkpt>
      <trkpt lat="46.12504" lon="-1.12698">
        <ele>3</ele>
        <time>2016-01-25T09:29:59.000Z</time>
      </trkpt>
      <trkpt lat="46.12501" lon="-1.12697">
        <ele>3</ele>
        <time>2016-01-25T09:30:02.000Z</time>
      </trkpt>
      <trkpt lat="46.12484" lon="-1.1269">
        <ele>3.4000000953674</ele>
        <time>2016-01-25T09:30:26.000Z</time>
      </trkpt>
      <trkpt lat="46.12466" lon="-1.12682">
        <ele>4</ele>
        <time>2016-01-25T09:30:40.000Z</time>
      </trkpt>
      <trkpt lat="46.12448" lon="-1.12671">
        <ele>4</ele>
        <time>2016-01-25T09:30:54.000Z</time>
      </trkpt>
      <trkpt lat="46.12446" lon="-1.1267">
        <ele>4</ele>
        <time>2016-01-25T09:30:56.000Z</time>
      </trkpt>
      <trkpt lat="46.12436" lon="-1.12668">
        <ele>4</ele>
        <time>2016-01-25T09:31:05.000Z</time>
      </trkpt>
      <trkpt lat="46.1242" lon="-1.12658">
        <ele>4</ele>
        <time>2016-01-25T09:31:19.000Z</time>
      </trkpt>
      <trkpt lat="46.12402" lon="-1.12651">
        <ele>4</ele>
        <time>2016-01-25T09:31:32.000Z</time>
      </trkpt>
      <trkpt lat="46.12395" lon="-1.1265">
        <ele>4</ele>
        <time>2016-01-25T09:31:39.000Z</time>
      </trkpt>
      <trkpt lat="46.12377" lon="-1.12643">
        <ele>3</ele>
        <time>2016-01-25T09:31:54.000Z</time>
      </trkpt>
      <trkpt lat="46.12374" lon="-1.12641">
        <ele>3</ele>
        <time>2016-01-25T09:31:56.000Z</time>
      </trkpt>
      <trkpt lat="46.12357" lon="-1.12633">
        <ele>3.2000000476837</ele>
        <time>2016-01-25T09:32:09.000Z</time>
      </trkpt>
      <trkpt lat="46.12338" lon="-1.12624">
        <ele>3.2000000476837</ele>
        <time>2016-01-25T09:32:23.000Z</time>
      </trkpt>
      <trkpt lat="46.1232" lon="-1.12617">
        <ele>3.2000000476837</ele>
        <time>2016-01-25T09:32:37.000Z</time>
      </trkpt>
      <trkpt lat="46.12302" lon="-1.12611">
        <ele>3</ele>
        <time>2016-01-25T09:32:50.000Z</time>
      </trkpt>
      <trkpt lat="46.12284" lon="-1.12602">
        <ele>3</ele>
        <time>2016-01-25T09:33:04.000Z</time>
      </trkpt>
      <trkpt lat="46.12282" lon="-1.12601">
        <ele>3</ele>
        <time>2016-01-25T09:33:06.000Z</time>
      </trkpt>
      <trkpt lat="46.1227" lon="-1.12595">
        <ele>3</ele>
        <time>2016-01-25T09:33:17.000Z</time>
      </trkpt>
      <trkpt lat="46.12253" lon="-1.12585">
        <ele>3</ele>
        <time>2016-01-25T09:33:31.000Z</time>
      </trkpt>
      <trkpt lat="46.12235" lon="-1.12578">
        <ele>3</ele>
        <time>2016-01-25T09:33:45.000Z</time>
      </trkpt>
      <trkpt lat="46.12218" lon="-1.1257">
        <ele>5</ele>
        <time>2016-01-25T09:33:58.000Z</time>
      </trkpt>
      <trkpt lat="46.122" lon="-1.12563">
        <ele>5</ele>
        <time>2016-01-25T09:34:11.000Z</time>
      </trkpt>
      <trkpt lat="46.12182" lon="-1.12554">
        <ele>5</ele>
        <time>2016-01-25T09:34:25.000Z</time>
      </trkpt>
      <trkpt lat="46.12164" lon="-1.12546">
        <ele>4.8000001907349</ele>
        <time>2016-01-25T09:34:40.000Z</time>
      </trkpt>
      <trkpt lat="46.12161" lon="-1.12545">
        <ele>4.8000001907349</ele>
        <time>2016-01-25T09:34:42.000Z</time>
      </trkpt>
      <trkpt lat="46.12159" lon="-1.12544">
        <ele>4.8000001907349</ele>
        <time>2016-01-25T09:34:44.000Z</time>
      </trkpt>
      <trkpt lat="46.1215" lon="-1.12541">
        <ele>5</ele>
        <time>2016-01-25T09:34:51.000Z</time>
      </trkpt>
      <trkpt lat="46.12132" lon="-1.12534">
        <ele>6</ele>
        <time>2016-01-25T09:35:06.000Z</time>
      </trkpt>
      <trkpt lat="46.12113" lon="-1.12527">
        <ele>6</ele>
        <time>2016-01-25T09:35:20.000Z</time>
      </trkpt>
      <trkpt lat="46.12095" lon="-1.12523">
        <ele>6</ele>
        <time>2016-01-25T09:35:33.000Z</time>
      </trkpt>
      <trkpt lat="46.12076" lon="-1.12518">
        <ele>6</ele>
        <time>2016-01-25T09:35:46.000Z</time>
      </trkpt>
      <trkpt lat="46.12059" lon="-1.12513">
        <ele>5</ele>
        <time>2016-01-25T09:35:58.000Z</time>
      </trkpt>
      <trkpt lat="46.12041" lon="-1.12509">
        <ele>5</ele>
        <time>2016-01-25T09:36:11.000Z</time>
      </trkpt>
      <trkpt lat="46.12023" lon="-1.12504">
        <ele>5</ele>
        <time>2016-01-25T09:36:24.000Z</time>
      </trkpt>
      <trkpt lat="46.12004" lon="-1.12498">
        <ele>5</ele>
        <time>2016-01-25T09:36:37.000Z</time>
      </trkpt>
      <trkpt lat="46.11986" lon="-1.12493">
        <ele>5</ele>
        <time>2016-01-25T09:36:50.000Z</time>
      </trkpt>
      <trkpt lat="46.11967" lon="-1.12488">
        <ele>5</ele>
        <time>2016-01-25T09:37:04.000Z</time>
      </trkpt>
      <trkpt lat="46.11948" lon="-1.12481">
        <ele>5</ele>
        <time>2016-01-25T09:37:18.000Z</time>
      </trkpt>
      <trkpt lat="46.1193" lon="-1.12475">
        <ele>6</ele>
        <time>2016-01-25T09:37:31.000Z</time>
      </trkpt>
      <trkpt lat="46.11912" lon="-1.12469">
        <ele>6</ele>
        <time>2016-01-25T09:37:45.000Z</time>
      </trkpt>
      <trkpt lat="46.11893" lon="-1.12465">
        <ele>7</ele>
        <time>2016-01-25T09:37:58.000Z</time>
      </trkpt>
      <trkpt lat="46.11875" lon="-1.1246">
        <ele>7</ele>
        <time>2016-01-25T09:38:11.000Z</time>
      </trkpt>
      <trkpt lat="46.11857" lon="-1.12457">
        <ele>7</ele>
        <time>2016-01-25T09:38:25.000Z</time>
      </trkpt>
      <trkpt lat="46.11838" lon="-1.12454">
        <ele>7</ele>
        <time>2016-01-25T09:38:39.000Z</time>
      </trkpt>
      <trkpt lat="46.11819" lon="-1.12451">
        <ele>7</ele>
        <time>2016-01-25T09:38:53.000Z</time>
      </trkpt>
      <trkpt lat="46.118" lon="-1.12448">
        <ele>7</ele>
        <time>2016-01-25T09:39:06.000Z</time>
      </trkpt>
      <trkpt lat="46.11782" lon="-1.12446">
        <ele>7</ele>
        <time>2016-01-25T09:39:20.000Z</time>
      </trkpt>
      <trkpt lat="46.11763" lon="-1.12443">
        <ele>7</ele>
        <time>2016-01-25T09:39:35.000Z</time>
      </trkpt>
      <trkpt lat="46.11744" lon="-1.1244">
        <ele>7</ele>
        <time>2016-01-25T09:39:49.000Z</time>
      </trkpt>
      <trkpt lat="46.11726" lon="-1.12439">
        <ele>5</ele>
        <time>2016-01-25T09:40:02.000Z</time>
      </trkpt>
      <trkpt lat="46.11708" lon="-1.12436">
        <ele>5</ele>
        <time>2016-01-25T09:40:15.000Z</time>
      </trkpt>
      <trkpt lat="46.1169" lon="-1.12433">
        <ele>5</ele>
        <time>2016-01-25T09:40:29.000Z</time>
      </trkpt>
      <trkpt lat="46.11671" lon="-1.12432">
        <ele>5</ele>
        <time>2016-01-25T09:40:43.000Z</time>
      </trkpt>
      <trkpt lat="46.11652" lon="-1.12429">
        <ele>5</ele>
        <time>2016-01-25T09:40:57.000Z</time>
      </trkpt>
      <trkpt lat="46.11633" lon="-1.12428">
        <ele>5</ele>
        <time>2016-01-25T09:41:11.000Z</time>
      </trkpt>
      <trkpt lat="46.11614" lon="-1.12427">
        <ele>5</ele>
        <time>2016-01-25T09:41:25.000Z</time>
      </trkpt>
      <trkpt lat="46.11595" lon="-1.12428">
        <ele>5</ele>
        <time>2016-01-25T09:41:39.000Z</time>
      </trkpt>
      <trkpt lat="46.11577" lon="-1.12426">
        <ele>5</ele>
        <time>2016-01-25T09:41:52.000Z</time>
      </trkpt>
      <trkpt lat="46.11557" lon="-1.12424">
        <ele>5</ele>
        <time>2016-01-25T09:42:06.000Z</time>
      </trkpt>
      <trkpt lat="46.1154" lon="-1.12423">
        <ele>5</ele>
        <time>2016-01-25T09:42:20.000Z</time>
      </trkpt>
      <trkpt lat="46.11521" lon="-1.12423">
        <ele>5</ele>
        <time>2016-01-25T09:42:33.000Z</time>
      </trkpt>
      <trkpt lat="46.11503" lon="-1.12424">
        <ele>5</ele>
        <time>2016-01-25T09:42:46.000Z</time>
      </trkpt>
      <trkpt lat="46.11484" lon="-1.12425">
        <ele>5</ele>
        <time>2016-01-25T09:42:58.000Z</time>
      </trkpt>
      <trkpt lat="46.11465" lon="-1.12425">
        <ele>5</ele>
        <time>2016-01-25T09:43:11.000Z</time>
      </trkpt>
      <trkpt lat="46.1146" lon="-1.12425">
        <ele>5</ele>
        <time>2016-01-25T09:43:14.000Z</time>
      </trkpt>
      <trkpt lat="46.11442" lon="-1.12426">
        <ele>5</ele>
        <time>2016-01-25T09:43:26.000Z</time>
      </trkpt>
      <trkpt lat="46.11423" lon="-1.12426">
        <ele>5</ele>
        <time>2016-01-25T09:43:38.000Z</time>
      </trkpt>
      <trkpt lat="46.11404" lon="-1.12424">
        <ele>5</ele>
        <time>2016-01-25T09:43:52.000Z</time>
      </trkpt>
      <trkpt lat="46.11386" lon="-1.12429">
        <ele>2</ele>
        <time>2016-01-25T09:44:05.000Z</time>
      </trkpt>
      <trkpt lat="46.11367" lon="-1.12431">
        <ele>2</ele>
        <time>2016-01-25T09:44:18.000Z</time>
      </trkpt>
      <trkpt lat="46.11349" lon="-1.12433">
        <ele>2</ele>
        <time>2016-01-25T09:44:31.000Z</time>
      </trkpt>
      <trkpt lat="46.11338" lon="-1.12431">
        <ele>2</ele>
        <time>2016-01-25T09:44:39.000Z</time>
      </trkpt>
      <trkpt lat="46.1132" lon="-1.12421">
        <ele>2</ele>
        <time>2016-01-25T09:44:52.000Z</time>
      </trkpt>
      <trkpt lat="46.11305" lon="-1.12409">
        <ele>2.2000000476837</ele>
        <time>2016-01-25T09:45:07.000Z</time>
      </trkpt>
      <trkpt lat="46.11301" lon="-1.12405">
        <ele>2.2000000476837</ele>
        <time>2016-01-25T09:47:42.000Z</time>
      </trkpt>
      <trkpt lat="46.11293" lon="-1.12408">
        <ele>2.2000000476837</ele>
        <time>2016-01-25T09:49:53.000Z</time>
      </trkpt>
      <trkpt lat="46.11275" lon="-1.12409">
        <ele>2.5999999046326</ele>
        <time>2016-01-25T09:50:10.000Z</time>
      </trkpt>
      <trkpt lat="46.11257" lon="-1.12415">
        <ele>3</ele>
        <time>2016-01-25T09:50:25.000Z</time>
      </trkpt>
      <trkpt lat="46.11238" lon="-1.12416">
        <ele>3.4000000953674</ele>
        <time>2016-01-25T09:50:40.000Z</time>
      </trkpt>
      <trkpt lat="46.1122" lon="-1.1242">
        <ele>3.2000000476837</ele>
        <time>2016-01-25T09:50:54.000Z</time>
      </trkpt>
      <trkpt lat="46.11203" lon="-1.12431">
        <ele>2.7999999523163</ele>
        <time>2016-01-25T09:51:08.000Z</time>
      </trkpt>
      <trkpt lat="46.11187" lon="-1.12442">
        <ele>2.4000000953674</ele>
        <time>2016-01-25T09:51:22.000Z</time>
      </trkpt>
      <trkpt lat="46.11179" lon="-1.12453">
        <ele>2</ele>
        <time>2016-01-25T09:51:31.000Z</time>
      </trkpt>
      <trkpt lat="46.11164" lon="-1.12468">
        <ele>1.3999999761581</ele>
        <time>2016-01-25T09:51:45.000Z</time>
      </trkpt>
      <trkpt lat="46.11148" lon="-1.12481">
        <ele>1</ele>
        <time>2016-01-25T09:51:58.000Z</time>
      </trkpt>
      <trkpt lat="46.11131" lon="-1.12493">
        <ele>1</ele>
        <time>2016-01-25T09:52:11.000Z</time>
      </trkpt>
      <trkpt lat="46.11116" lon="-1.12508">
        <ele>1</ele>
        <time>2016-01-25T09:52:23.000Z</time>
      </trkpt>
      <trkpt lat="46.11102" lon="-1.12525">
        <ele>1</ele>
        <time>2016-01-25T09:52:36.000Z</time>
      </trkpt>
      <trkpt lat="46.11089" lon="-1.12545">
        <ele>1</ele>
        <time>2016-01-25T09:52:50.000Z</time>
      </trkpt>
      <trkpt lat="46.1108" lon="-1.12569">
        <ele>0.60000002384186</ele>
        <time>2016-01-25T09:53:04.000Z</time>
      </trkpt>
      <trkpt lat="46.11078" lon="-1.12595">
        <ele>3.1</ele>
        <time>2016-01-25T09:53:18.000Z</time>
      </trkpt>
      <trkpt lat="46.11079" lon="-1.12612">
        <ele>-0.40000000596046</ele>
        <time>2016-01-25T09:53:27.000Z</time>
      </trkpt>
      <trkpt lat="46.11081" lon="-1.1263">
        <ele>-0.80000001192093</ele>
        <time>2016-01-25T09:53:36.000Z</time>
      </trkpt>
      <trkpt lat="46.11081" lon="-1.12632">
        <ele>-0.80000001192093</ele>
        <time>2016-01-25T09:53:37.000Z</time>
      </trkpt>
      <trkpt lat="46.1108" lon="-1.1264">
        <ele>-0.80000001192093</ele>
        <time>2016-01-25T09:53:41.000Z</time>
      </trkpt>
      <trkpt lat="46.11076" lon="-1.12666">
        <ele>0.80000001192093</ele>
        <time>2016-01-25T09:53:55.000Z</time>
      </trkpt>
      <trkpt lat="46.11071" lon="-1.12692">
        <ele>2.2000000476837</ele>
        <time>2016-01-25T09:54:08.000Z</time>
      </trkpt>
      <trkpt lat="46.11066" lon="-1.12719">
        <ele>3.5999999046326</ele>
        <time>2016-01-25T09:54:22.000Z</time>
      </trkpt>
      <trkpt lat="46.11066" lon="-1.12721">
        <ele>3.7999999523163</ele>
        <time>2016-01-25T09:54:23.000Z</time>
      </trkpt>
      <trkpt lat="46.11062" lon="-1.12745">
        <ele>4</ele>
        <time>2016-01-25T09:54:36.000Z</time>
      </trkpt>
      <trkpt lat="46.11056" lon="-1.1277">
        <ele>3.4000000953674</ele>
        <time>2016-01-25T09:54:49.000Z</time>
      </trkpt>
      <trkpt lat="46.11049" lon="-1.12795">
        <ele>3.2000000476837</ele>
        <time>2016-01-25T09:55:03.000Z</time>
      </trkpt>
      <trkpt lat="46.11042" lon="-1.12817">
        <ele>1.2000000476837</ele>
        <time>2016-01-25T09:55:16.000Z</time>
      </trkpt>
      <trkpt lat="46.11033" lon="-1.1284">
        <ele>0.60000002384186</ele>
        <time>2016-01-25T09:55:29.000Z</time>
      </trkpt>
      <trkpt lat="46.11022" lon="-1.12863">
        <ele>0.60000002384186</ele>
        <time>2016-01-25T09:55:43.000Z</time>
      </trkpt>
      <trkpt lat="46.11013" lon="-1.12887">
        <ele>0.40000000596046</ele>
        <time>2016-01-25T09:55:57.000Z</time>
      </trkpt>
      <trkpt lat="46.11004" lon="-1.12909">
        <ele>0.20000000298023</ele>
        <time>2016-01-25T09:56:10.000Z</time>
      </trkpt>
      <trkpt lat="46.10994" lon="-1.12933">
        <ele>0.40000000596046</ele>
        <time>2016-01-25T09:56:24.000Z</time>
      </trkpt>
      <trkpt lat="46.10984" lon="-1.12955">
        <ele>0.80000001192093</ele>
        <time>2016-01-25T09:56:37.000Z</time>
      </trkpt>
      <trkpt lat="46.10973" lon="-1.12977">
        <ele>1</ele>
        <time>2016-01-25T09:56:51.000Z</time>
      </trkpt>
      <trkpt lat="46.10969" lon="-1.12983">
        <ele>1</ele>
        <time>2016-01-25T09:56:55.000Z</time>
      </trkpt>
      <trkpt lat="46.1096" lon="-1.13005">
        <ele>1</ele>
        <time>2016-01-25T09:57:08.000Z</time>
      </trkpt>
      <trkpt lat="46.10947" lon="-1.13024">
        <ele>1.2000000476837</ele>
        <time>2016-01-25T09:57:22.000Z</time>
      </trkpt>
      <trkpt lat="46.10933" lon="-1.13041">
        <ele>1.2000000476837</ele>
        <time>2016-01-25T09:57:36.000Z</time>
      </trkpt>
      <trkpt lat="46.1092" lon="-1.13062">
        <ele>1.3999999761581</ele>
        <time>2016-01-25T09:57:50.000Z</time>
      </trkpt>
      <trkpt lat="46.1091" lon="-1.13084">
        <ele>1.6000000238419</ele>
        <time>2016-01-25T09:58:03.000Z</time>
      </trkpt>
      <trkpt lat="46.10902" lon="-1.13107">
        <ele>1.7999999523163</ele>
        <time>2016-01-25T09:58:17.000Z</time>
      </trkpt>
      <trkpt lat="46.10893" lon="-1.13131">
        <ele>2</ele>
        <time>2016-01-25T09:58:30.000Z</time>
      </trkpt>
      <trkpt lat="46.1089" lon="-1.13156">
        <ele>2</ele>
        <time>2016-01-25T09:58:42.000Z</time>
      </trkpt>
      <trkpt lat="46.1089" lon="-1.13184">
        <ele>2</ele>
        <time>2016-01-25T09:58:55.000Z</time>
      </trkpt>
      <trkpt lat="46.1089" lon="-1.1321">
        <ele>2</ele>
        <time>2016-01-25T09:59:08.000Z</time>
      </trkpt>
      <trkpt lat="46.10893" lon="-1.13228">
        <ele>2</ele>
        <time>2016-01-25T09:59:20.000Z</time>
      </trkpt>
      <trkpt lat="46.10895" lon="-1.1324">
        <ele>1.7999999523163</ele>
        <time>2016-01-25T09:59:30.000Z</time>
      </trkpt>
      <trkpt lat="46.10897" lon="-1.13249">
        <ele>1.6000000238419</ele>
        <time>2016-01-25T09:59:36.000Z</time>
      </trkpt>
      <trkpt lat="46.10909" lon="-1.13269">
        <ele>1.3999999761581</ele>
        <time>2016-01-25T09:59:51.000Z</time>
      </trkpt>
      <trkpt lat="46.10921" lon="-1.13289">
        <ele>1</ele>
        <time>2016-01-25T10:00:05.000Z</time>
      </trkpt>
      <trkpt lat="46.10932" lon="-1.13311">
        <ele>1.3999999761581</ele>
        <time>2016-01-25T10:00:19.000Z</time>
      </trkpt>
      <trkpt lat="46.1094" lon="-1.13334">
        <ele>2.2000000476837</ele>
        <time>2016-01-25T10:00:41.000Z</time>
      </trkpt>
      <trkpt lat="46.10945" lon="-1.13355">
        <ele>2.4000000953674</ele>
        <time>2016-01-25T10:01:31.000Z</time>
      </trkpt>
      <trkpt lat="46.1095" lon="-1.1338">
        <ele>2.4000000953674</ele>
        <time>2016-01-25T10:01:47.000Z</time>
      </trkpt>
      <trkpt lat="46.10955" lon="-1.13405">
        <ele>3</ele>
        <time>2016-01-25T10:02:01.000Z</time>
      </trkpt>
      <trkpt lat="46.10958" lon="-1.13432">
        <ele>3</ele>
        <time>2016-01-25T10:02:16.000Z</time>
      </trkpt>
      <trkpt lat="46.1096" lon="-1.1346">
        <ele>3</ele>
        <time>2016-01-25T10:02:30.000Z</time>
      </trkpt>
      <trkpt lat="46.10961" lon="-1.13486">
        <ele>3</ele>
        <time>2016-01-25T10:02:43.000Z</time>
      </trkpt>
      <trkpt lat="46.10961" lon="-1.13514">
        <ele>3</ele>
        <time>2016-01-25T10:02:57.000Z</time>
      </trkpt>
      <trkpt lat="46.10962" lon="-1.13541">
        <ele>3</ele>
        <time>2016-01-25T10:03:11.000Z</time>
      </trkpt>
      <trkpt lat="46.10961" lon="-1.13567">
        <ele>2.2000000476837</ele>
        <time>2016-01-25T10:03:26.000Z</time>
      </trkpt>
      <trkpt lat="46.10961" lon="-1.13568">
        <ele>2</ele>
        <time>2016-01-25T10:03:27.000Z</time>
      </trkpt>
      <trkpt lat="46.1096" lon="-1.13576">
        <ele>2</ele>
        <time>2016-01-25T10:03:31.000Z</time>
      </trkpt>
      <trkpt lat="46.10959" lon="-1.13603">
        <ele>2</ele>
        <time>2016-01-25T10:03:45.000Z</time>
      </trkpt>
      <trkpt lat="46.10958" lon="-1.13629">
        <ele>2</ele>
        <time>2016-01-25T10:03:59.000Z</time>
      </trkpt>
      <trkpt lat="46.10959" lon="-1.13657">
        <ele>1.2000000476837</ele>
        <time>2016-01-25T10:04:14.000Z</time>
      </trkpt>
      <trkpt lat="46.10961" lon="-1.13683">
        <ele>1</ele>
        <time>2016-01-25T10:04:27.000Z</time>
      </trkpt>
      <trkpt lat="46.10965" lon="-1.13709">
        <ele>0.40000000596046</ele>
        <time>2016-01-25T10:04:42.000Z</time>
      </trkpt>
      <trkpt lat="46.1097" lon="-1.13735">
        <ele>0.20000000298023</ele>
        <time>2016-01-25T10:04:55.000Z</time>
      </trkpt>
      <trkpt lat="46.10974" lon="-1.13761">
        <ele>0.40000000596046</ele>
        <time>2016-01-25T10:05:09.000Z</time>
      </trkpt>
      <trkpt lat="46.10977" lon="-1.13776">
        <ele>0.60000002384186</ele>
        <time>2016-01-25T10:05:16.000Z</time>
      </trkpt>
      <trkpt lat="46.10973" lon="-1.13797">
        <ele>1</ele>
        <time>2016-01-25T10:05:31.000Z</time>
      </trkpt>
      <trkpt lat="46.10966" lon="-1.13799">
        <ele>1.2000000476837</ele>
        <time>2016-01-25T10:05:36.000Z</time>
      </trkpt>
      <trkpt lat="46.1095" lon="-1.13807">
        <ele>1.6000000238419</ele>
        <time>2016-01-25T10:05:49.000Z</time>
      </trkpt>
      <trkpt lat="46.10932" lon="-1.13812">
        <ele>2</ele>
        <time>2016-01-25T10:06:04.000Z</time>
      </trkpt>
      <trkpt lat="46.10914" lon="-1.13819">
        <ele>2.5999999046326</ele>
        <time>2016-01-25T10:06:18.000Z</time>
      </trkpt>
      <trkpt lat="46.10895" lon="-1.13821">
        <ele>3</ele>
        <time>2016-01-25T10:06:31.000Z</time>
      </trkpt>
      <trkpt lat="46.10876" lon="-1.13821">
        <ele>2.7999999523163</ele>
        <time>2016-01-25T10:06:43.000Z</time>
      </trkpt>
      <trkpt lat="46.1087" lon="-1.13821">
        <ele>2.7999999523163</ele>
        <time>2016-01-25T10:06:48.000Z</time>
      </trkpt>
      <trkpt lat="46.10873" lon="-1.13845">
        <ele>3</ele>
        <time>2016-01-25T10:07:12.000Z</time>
      </trkpt>
      <trkpt lat="46.10874" lon="-1.13873">
        <ele>3.2000000476837</ele>
        <time>2016-01-25T10:07:26.000Z</time>
      </trkpt>
      <trkpt lat="46.10876" lon="-1.139">
        <ele>3.7999999523163</ele>
        <time>2016-01-25T10:07:39.000Z</time>
      </trkpt>
      <trkpt lat="46.10877" lon="-1.13926">
        <ele>4.4000000953674</ele>
        <time>2016-01-25T10:07:53.000Z</time>
      </trkpt>
      <trkpt lat="46.10878" lon="-1.13954">
        <ele>5</ele>
        <time>2016-01-25T10:08:06.000Z</time>
      </trkpt>
      <trkpt lat="46.1088" lon="-1.13981">
        <ele>5.8000001907349</ele>
        <time>2016-01-25T10:08:19.000Z</time>
      </trkpt>
      <trkpt lat="46.10881" lon="-1.14008">
        <ele>6.1999998092651</ele>
        <time>2016-01-25T10:08:32.000Z</time>
      </trkpt>
      <trkpt lat="46.10882" lon="-1.14035">
        <ele>6.5999999046326</ele>
        <time>2016-01-25T10:08:46.000Z</time>
      </trkpt>
      <trkpt lat="46.10885" lon="-1.14061">
        <ele>6.8000001907349</ele>
        <time>2016-01-25T10:08:58.000Z</time>
      </trkpt>
      <trkpt lat="46.10888" lon="-1.14087">
        <ele>6.4000000953674</ele>
        <time>2016-01-25T10:09:11.000Z</time>
      </trkpt>
      <trkpt lat="46.10891" lon="-1.14114">
        <ele>5.8000001907349</ele>
        <time>2016-01-25T10:09:24.000Z</time>
      </trkpt>
      <trkpt lat="46.10896" lon="-1.1414">
        <ele>5</ele>
        <time>2016-01-25T10:09:38.000Z</time>
      </trkpt>
      <trkpt lat="46.10898" lon="-1.14166">
        <ele>4.4000000953674</ele>
        <time>2016-01-25T10:09:51.000Z</time>
      </trkpt>
      <trkpt lat="46.10899" lon="-1.14193">
        <ele>3.7999999523163</ele>
        <time>2016-01-25T10:10:04.000Z</time>
      </trkpt>
      <trkpt lat="46.10902" lon="-1.14219">
        <ele>3.2000000476837</ele>
        <time>2016-01-25T10:10:16.000Z</time>
      </trkpt>
      <trkpt lat="46.10903" lon="-1.14247">
        <ele>2</ele>
        <time>2016-01-25T10:10:29.000Z</time>
      </trkpt>
      <trkpt lat="46.10894" lon="-1.14269">
        <ele>1.3999999761581</ele>
        <time>2016-01-25T10:10:42.000Z</time>
      </trkpt>
      <trkpt lat="46.10881" lon="-1.14287">
        <ele>1.2000000476837</ele>
        <time>2016-01-25T10:10:55.000Z</time>
      </trkpt>
      <trkpt lat="46.10868" lon="-1.14306">
        <ele>0.80000001192093</ele>
        <time>2016-01-25T10:11:08.000Z</time>
      </trkpt>
      <trkpt lat="46.10867" lon="-1.14307">
        <ele>0.80000001192093</ele>
        <time>2016-01-25T10:11:09.000Z</time>
      </trkpt>
      <trkpt lat="46.10849" lon="-1.1431">
        <ele>1</ele>
        <time>2016-01-25T10:11:22.000Z</time>
      </trkpt>
      <trkpt lat="46.1083" lon="-1.1431">
        <ele>1.6000000238419</ele>
        <time>2016-01-25T10:11:35.000Z</time>
      </trkpt>
      <trkpt lat="46.1081" lon="-1.1431">
        <ele>2</ele>
        <time>2016-01-25T10:11:48.000Z</time>
      </trkpt>
      <trkpt lat="46.10792" lon="-1.14305">
        <ele>2</ele>
        <time>2016-01-25T10:12:01.000Z</time>
      </trkpt>
      <trkpt lat="46.10779" lon="-1.14295">
        <ele>2.4000000953674</ele>
        <time>2016-01-25T10:12:11.000Z</time>
      </trkpt>
      <trkpt lat="46.10776" lon="-1.14289">
        <ele>2.5999999046326</ele>
        <time>2016-01-25T10:12:15.000Z</time>
      </trkpt>
      <trkpt lat="46.10768" lon="-1.14283">
        <ele>2.7999999523163</ele>
        <time>2016-01-25T10:12:23.000Z</time>
      </trkpt>
      <trkpt lat="46.10759" lon="-1.14275">
        <ele>3.2000000476837</ele>
        <time>2016-01-25T10:12:32.000Z</time>
      </trkpt>
      <trkpt lat="46.10741" lon="-1.14267">
        <ele>3.2000000476837</ele>
        <time>2016-01-25T10:12:46.000Z</time>
      </trkpt>
      <trkpt lat="46.10722" lon="-1.14264">
        <ele>3.2000000476837</ele>
        <time>2016-01-25T10:13:01.000Z</time>
      </trkpt>
      <trkpt lat="46.10719" lon="-1.14263">
        <ele>3.2000000476837</ele>
        <time>2016-01-25T10:13:03.000Z</time>
      </trkpt>
      <trkpt lat="46.10702" lon="-1.14273">
        <ele>2.5999999046326</ele>
        <time>2016-01-25T10:13:17.000Z</time>
      </trkpt>
      <trkpt lat="46.10686" lon="-1.14261">
        <ele>2.7999999523163</ele>
        <time>2016-01-25T10:13:31.000Z</time>
      </trkpt>
      <trkpt lat="46.10669" lon="-1.14254">
        <ele>3</ele>
        <time>2016-01-25T10:13:44.000Z</time>
      </trkpt>
      <trkpt lat="46.10653" lon="-1.14241">
        <ele>3.4000000953674</ele>
        <time>2016-01-25T10:13:57.000Z</time>
      </trkpt>
      <trkpt lat="46.1065" lon="-1.14219">
        <ele>4.1999998092651</ele>
        <time>2016-01-25T10:14:12.000Z</time>
      </trkpt>
      <trkpt lat="46.10642" lon="-1.14195">
        <ele>4.5999999046326</ele>
        <time>2016-01-25T10:14:30.000Z</time>
      </trkpt>
      <trkpt lat="46.10639" lon="-1.14188">
        <ele>4.5999999046326</ele>
        <time>2016-01-25T10:14:35.000Z</time>
      </trkpt>
      <trkpt lat="46.10635" lon="-1.14185">
        <ele>4.4000000953674</ele>
        <time>2016-01-25T10:14:39.000Z</time>
      </trkpt>
      <trkpt lat="46.10621" lon="-1.14166">
        <ele>4.1999998092651</ele>
        <time>2016-01-25T10:14:53.000Z</time>
      </trkpt>
      <trkpt lat="46.10604" lon="-1.14154">
        <ele>4.1999998092651</ele>
        <time>2016-01-25T10:15:05.000Z</time>
      </trkpt>
      <trkpt lat="46.10588" lon="-1.14143">
        <ele>4</ele>
        <time>2016-01-25T10:15:18.000Z</time>
      </trkpt>
      <trkpt lat="46.10571" lon="-1.14134">
        <ele>3.5999999046326</ele>
        <time>2016-01-25T10:15:30.000Z</time>
      </trkpt>
      <trkpt lat="46.10553" lon="-1.14123">
        <ele>3.7999999523163</ele>
        <time>2016-01-25T10:15:42.000Z</time>
      </trkpt>
      <trkpt lat="46.10535" lon="-1.14116">
        <ele>3.4000000953674</ele>
        <time>2016-01-25T10:15:56.000Z</time>
      </trkpt>
      <trkpt lat="46.10517" lon="-1.14107">
        <ele>3.2000000476837</ele>
        <time>2016-01-25T10:16:11.000Z</time>
      </trkpt>
      <trkpt lat="46.10499" lon="-1.14099">
        <ele>3</ele>
        <time>2016-01-25T10:16:25.000Z</time>
      </trkpt>
      <trkpt lat="46.10482" lon="-1.14085">
        <ele>3</ele>
        <time>2016-01-25T10:16:39.000Z</time>
      </trkpt>
      <trkpt lat="46.10466" lon="-1.14073">
        <ele>3.5999999046326</ele>
        <time>2016-01-25T10:16:50.000Z</time>
      </trkpt>
      <trkpt lat="46.10451" lon="-1.14056">
        <ele>3.2000000476837</ele>
        <time>2016-01-25T10:17:04.000Z</time>
      </trkpt>
      <trkpt lat="46.10445" lon="-1.14031">
        <ele>3.2000000476837</ele>
        <time>2016-01-25T10:17:19.000Z</time>
      </trkpt>
      <trkpt lat="46.10441" lon="-1.14014">
        <ele>3.2000000476837</ele>
        <time>2016-01-25T10:17:52.000Z</time>
      </trkpt>
      <trkpt lat="46.10438" lon="-1.1401">
        <ele>3.2000000476837</ele>
        <time>2016-01-25T10:18:37.000Z</time>
      </trkpt>
      <trkpt lat="46.10445" lon="-1.13993">
        <ele>3.4000000953674</ele>
        <time>2016-01-25T10:19:08.000Z</time>
      </trkpt>
      <trkpt lat="46.10449" lon="-1.13993">
        <ele>3.5999999046326</ele>
        <time>2016-01-25T10:19:11.000Z</time>
      </trkpt>
      <trkpt lat="46.10452" lon="-1.13989">
        <ele>3.7999999523163</ele>
        <time>2016-01-25T10:19:15.000Z</time>
      </trkpt>
      <trkpt lat="46.10468" lon="-1.13978">
        <ele>4.5999999046326</ele>
        <time>2016-01-25T10:19:28.000Z</time>
      </trkpt>
      <trkpt lat="46.10483" lon="-1.13961">
        <ele>4.4000000953674</ele>
        <time>2016-01-25T10:19:40.000Z</time>
      </trkpt>
      <trkpt lat="46.10499" lon="-1.13947">
        <ele>4.1999998092651</ele>
        <time>2016-01-25T10:19:52.000Z</time>
      </trkpt>
      <trkpt lat="46.10516" lon="-1.1394">
        <ele>4.1999998092651</ele>
        <time>2016-01-25T10:20:04.000Z</time>
      </trkpt>
      <trkpt lat="46.10535" lon="-1.13939">
        <ele>4.4000000953674</ele>
        <time>2016-01-25T10:20:17.000Z</time>
      </trkpt>
      <trkpt lat="46.1054" lon="-1.13938">
        <ele>4.4000000953674</ele>
        <time>2016-01-25T10:20:21.000Z</time>
      </trkpt>
      <trkpt lat="46.10558" lon="-1.13931">
        <ele>4.1999998092651</ele>
        <time>2016-01-25T10:20:35.000Z</time>
      </trkpt>
      <trkpt lat="46.10559" lon="-1.13931">
        <ele>4.4000000953674</ele>
        <time>2016-01-25T10:20:36.000Z</time>
      </trkpt>
      <trkpt lat="46.10576" lon="-1.13937">
        <ele>4.5999999046326</ele>
        <time>2016-01-25T10:20:48.000Z</time>
      </trkpt>
      <trkpt lat="46.10593" lon="-1.13924">
        <ele>4</ele>
        <time>2016-01-25T10:21:01.000Z</time>
      </trkpt>
      <trkpt lat="46.10608" lon="-1.13907">
        <ele>3.4000000953674</ele>
        <time>2016-01-25T10:21:13.000Z</time>
      </trkpt>
      <trkpt lat="46.10623" lon="-1.13892">
        <ele>3</ele>
        <time>2016-01-25T10:21:26.000Z</time>
      </trkpt>
      <trkpt lat="46.10627" lon="-1.13887">
        <ele>3</ele>
        <time>2016-01-25T10:21:31.000Z</time>
      </trkpt>
      <trkpt lat="46.10629" lon="-1.13886">
        <ele>3</ele>
        <time>2016-01-25T10:21:33.000Z</time>
      </trkpt>
      <trkpt lat="46.10641" lon="-1.13868">
        <ele>3</ele>
        <time>2016-01-25T10:21:50.000Z</time>
      </trkpt>
      <trkpt lat="46.10651" lon="-1.13858">
        <ele>3</ele>
        <time>2016-01-25T10:22:00.000Z</time>
      </trkpt>
      <trkpt lat="46.10667" lon="-1.13852">
        <ele>3</ele>
        <time>2016-01-25T10:22:31.000Z</time>
      </trkpt>
      <trkpt lat="46.10685" lon="-1.13854">
        <ele>3</ele>
        <time>2016-01-25T10:22:53.000Z</time>
      </trkpt>
      <trkpt lat="46.10704" lon="-1.13854">
        <ele>3</ele>
        <time>2016-01-25T10:23:06.000Z</time>
      </trkpt>
      <trkpt lat="46.10723" lon="-1.13855">
        <ele>3</ele>
        <time>2016-01-25T10:23:17.000Z</time>
      </trkpt>
      <trkpt lat="46.10741" lon="-1.13853">
        <ele>2.7999999523163</ele>
        <time>2016-01-25T10:23:30.000Z</time>
      </trkpt>
      <trkpt lat="46.10759" lon="-1.13849">
        <ele>2.5999999046326</ele>
        <time>2016-01-25T10:23:43.000Z</time>
      </trkpt>
      <trkpt lat="46.10778" lon="-1.13844">
        <ele>2.4000000953674</ele>
        <time>2016-01-25T10:23:55.000Z</time>
      </trkpt>
      <trkpt lat="46.10779" lon="-1.13843">
        <ele>2.4000000953674</ele>
        <time>2016-01-25T10:23:56.000Z</time>
      </trkpt>
      <trkpt lat="46.10787" lon="-1.1384">
        <ele>2.2000000476837</ele>
        <time>2016-01-25T10:24:02.000Z</time>
      </trkpt>
      <trkpt lat="46.10803" lon="-1.13829">
        <ele>2</ele>
        <time>2016-01-25T10:24:14.000Z</time>
      </trkpt>
      <trkpt lat="46.10809" lon="-1.13823">
        <ele>2</ele>
        <time>2016-01-25T10:24:19.000Z</time>
      </trkpt>
      <trkpt lat="46.10826" lon="-1.13812">
        <ele>2.2000000476837</ele>
        <time>2016-01-25T10:24:31.000Z</time>
      </trkpt>
      <trkpt lat="46.10834" lon="-1.13811">
        <ele>2.2000000476837</ele>
        <time>2016-01-25T10:24:37.000Z</time>
      </trkpt>
      <trkpt lat="46.10853" lon="-1.13805">
        <ele>2.4000000953674</ele>
        <time>2016-01-25T10:24:51.000Z</time>
      </trkpt>
      <trkpt lat="46.10871" lon="-1.13802">
        <ele>2.5999999046326</ele>
        <time>2016-01-25T10:25:03.000Z</time>
      </trkpt>
      <trkpt lat="46.10889" lon="-1.138">
        <ele>2.7999999523163</ele>
        <time>2016-01-25T10:25:15.000Z</time>
      </trkpt>
      <trkpt lat="46.10908" lon="-1.13798">
        <ele>2.5999999046326</ele>
        <time>2016-01-25T10:25:27.000Z</time>
      </trkpt>
      <trkpt lat="46.10928" lon="-1.13792">
        <ele>2</ele>
        <time>2016-01-25T10:25:39.000Z</time>
      </trkpt>
      <trkpt lat="46.10946" lon="-1.13789">
        <ele>1.3999999761581</ele>
        <time>2016-01-25T10:25:51.000Z</time>
      </trkpt>
      <trkpt lat="46.10947" lon="-1.1379">
        <ele>1.3999999761581</ele>
        <time>2016-01-25T10:25:52.000Z</time>
      </trkpt>
      <trkpt lat="46.10954" lon="-1.13795">
        <ele>1.3999999761581</ele>
        <time>2016-01-25T10:25:59.000Z</time>
      </trkpt>
      <trkpt lat="46.10964" lon="-1.13795">
        <ele>1.2000000476837</ele>
        <time>2016-01-25T10:26:07.000Z</time>
      </trkpt>
      <trkpt lat="46.10978" lon="-1.13778">
        <ele>0.60000002384186</ele>
        <time>2016-01-25T10:26:24.000Z</time>
      </trkpt>
      <trkpt lat="46.1098" lon="-1.13775">
        <ele>0.60000002384186</ele>
        <time>2016-01-25T10:26:27.000Z</time>
      </trkpt>
      <trkpt lat="46.10978" lon="-1.13749">
        <ele>0.20000000298023</ele>
        <time>2016-01-25T10:26:53.000Z</time>
      </trkpt>
      <trkpt lat="46.10973" lon="-1.13722">
        <ele>0.20000000298023</ele>
        <time>2016-01-25T10:27:07.000Z</time>
      </trkpt>
      <trkpt lat="46.10968" lon="-1.13696">
        <ele>0.60000002384186</ele>
        <time>2016-01-25T10:27:20.000Z</time>
      </trkpt>
      <trkpt lat="46.10963" lon="-1.13671">
        <ele>1</ele>
        <time>2016-01-25T10:27:33.000Z</time>
      </trkpt>
      <trkpt lat="46.10961" lon="-1.13645">
        <ele>1.2000000476837</ele>
        <time>2016-01-25T10:27:45.000Z</time>
      </trkpt>
      <trkpt lat="46.10963" lon="-1.13618">
        <ele>2</ele>
        <time>2016-01-25T10:27:57.000Z</time>
      </trkpt>
      <trkpt lat="46.10964" lon="-1.13591">
        <ele>2</ele>
        <time>2016-01-25T10:28:10.000Z</time>
      </trkpt>
      <trkpt lat="46.10963" lon="-1.13563">
        <ele>2.2000000476837</ele>
        <time>2016-01-25T10:28:23.000Z</time>
      </trkpt>
      <trkpt lat="46.10964" lon="-1.13536">
        <ele>3</ele>
        <time>2016-01-25T10:28:35.000Z</time>
      </trkpt>
      <trkpt lat="46.10965" lon="-1.13509">
        <ele>3</ele>
        <time>2016-01-25T10:28:46.000Z</time>
      </trkpt>
      <trkpt lat="46.10964" lon="-1.13483">
        <ele>3</ele>
        <time>2016-01-25T10:28:58.000Z</time>
      </trkpt>
      <trkpt lat="46.10961" lon="-1.13456">
        <ele>3</ele>
        <time>2016-01-25T10:29:11.000Z</time>
      </trkpt>
      <trkpt lat="46.1096" lon="-1.1343">
        <ele>3</ele>
        <time>2016-01-25T10:29:23.000Z</time>
      </trkpt>
      <trkpt lat="46.10956" lon="-1.13404">
        <ele>3</ele>
        <time>2016-01-25T10:29:35.000Z</time>
      </trkpt>
      <trkpt lat="46.10952" lon="-1.13377">
        <ele>2.4000000953674</ele>
        <time>2016-01-25T10:29:47.000Z</time>
      </trkpt>
      <trkpt lat="46.10947" lon="-1.13351">
        <ele>2.4000000953674</ele>
        <time>2016-01-25T10:29:59.000Z</time>
      </trkpt>
      <trkpt lat="46.10942" lon="-1.13326">
        <ele>2</ele>
        <time>2016-01-25T10:30:11.000Z</time>
      </trkpt>
      <trkpt lat="46.10933" lon="-1.13303">
        <ele>1</ele>
        <time>2016-01-25T10:30:23.000Z</time>
      </trkpt>
      <trkpt lat="46.10921" lon="-1.13282">
        <ele>1</ele>
        <time>2016-01-25T10:30:36.000Z</time>
      </trkpt>
      <trkpt lat="46.10908" lon="-1.13262">
        <ele>1.3999999761581</ele>
        <time>2016-01-25T10:30:48.000Z</time>
      </trkpt>
      <trkpt lat="46.10897" lon="-1.1324">
        <ele>1.7999999523163</ele>
        <time>2016-01-25T10:31:01.000Z</time>
      </trkpt>
      <trkpt lat="46.10896" lon="-1.13237">
        <ele>1.7999999523163</ele>
        <time>2016-01-25T10:31:03.000Z</time>
      </trkpt>
      <trkpt lat="46.10893" lon="-1.13217">
        <ele>2</ele>
        <time>2016-01-25T10:31:58.000Z</time>
      </trkpt>
      <trkpt lat="46.10894" lon="-1.13213">
        <ele>2</ele>
        <time>2016-01-25T10:34:12.000Z</time>
      </trkpt>
      <trkpt lat="46.10895" lon="-1.13223">
        <ele>2</ele>
        <time>2016-01-25T10:36:02.000Z</time>
      </trkpt>
      <trkpt lat="46.10895" lon="-1.13217">
        <ele>2</ele>
        <time>2016-01-25T10:36:15.000Z</time>
      </trkpt>
      <trkpt lat="46.10893" lon="-1.13205">
        <ele>2</ele>
        <time>2016-01-25T10:36:22.000Z</time>
      </trkpt>
      <trkpt lat="46.10895" lon="-1.13177">
        <ele>2</ele>
        <time>2016-01-25T10:36:36.000Z</time>
      </trkpt>
      <trkpt lat="46.10896" lon="-1.13149">
        <ele>2</ele>
        <time>2016-01-25T10:36:47.000Z</time>
      </trkpt>
      <trkpt lat="46.10903" lon="-1.13123">
        <ele>1.7999999523163</ele>
        <time>2016-01-25T10:36:55.000Z</time>
      </trkpt>
      <trkpt lat="46.10911" lon="-1.131">
        <ele>1.6000000238419</ele>
        <time>2016-01-25T10:37:04.000Z</time>
      </trkpt>
      <trkpt lat="46.1092" lon="-1.13077">
        <ele>1.3999999761581</ele>
        <time>2016-01-25T10:37:16.000Z</time>
      </trkpt>
      <trkpt lat="46.1093" lon="-1.13055">
        <ele>1.2000000476837</ele>
        <time>2016-01-25T10:37:28.000Z</time>
      </trkpt>
      <trkpt lat="46.10943" lon="-1.13035">
        <ele>1.2000000476837</ele>
        <time>2016-01-25T10:37:44.000Z</time>
      </trkpt>
      <trkpt lat="46.10959" lon="-1.13019">
        <ele>1</ele>
        <time>2016-01-25T10:37:57.000Z</time>
      </trkpt>
      <trkpt lat="46.1097" lon="-1.12999">
        <ele>0.80000001192093</ele>
        <time>2016-01-25T10:38:08.000Z</time>
      </trkpt>
      <trkpt lat="46.10981" lon="-1.12977">
        <ele>1</ele>
        <time>2016-01-25T10:38:20.000Z</time>
      </trkpt>
      <trkpt lat="46.1099" lon="-1.12955">
        <ele>0.80000001192093</ele>
        <time>2016-01-25T10:38:32.000Z</time>
      </trkpt>
      <trkpt lat="46.11" lon="-1.12932">
        <ele>0.40000000596046</ele>
        <time>2016-01-25T10:38:46.000Z</time>
      </trkpt>
      <trkpt lat="46.11009" lon="-1.12909">
        <ele>0.20000000298023</ele>
        <time>2016-01-25T10:39:00.000Z</time>
      </trkpt>
      <trkpt lat="46.1101" lon="-1.12906">
        <ele>0.20000000298023</ele>
        <time>2016-01-25T10:39:03.000Z</time>
      </trkpt>
      <trkpt lat="46.11018" lon="-1.12881">
        <ele>0.40000000596046</ele>
        <time>2016-01-25T10:39:17.000Z</time>
      </trkpt>
      <trkpt lat="46.11027" lon="-1.12859">
        <ele>0.60000002384186</ele>
        <time>2016-01-25T10:39:28.000Z</time>
      </trkpt>
      <trkpt lat="46.1103" lon="-1.12855">
        <ele>0.60000002384186</ele>
        <time>2016-01-25T10:39:31.000Z</time>
      </trkpt>
      <trkpt lat="46.11034" lon="-1.12844">
        <ele>0.60000002384186</ele>
        <time>2016-01-25T10:39:38.000Z</time>
      </trkpt>
      <trkpt lat="46.11044" lon="-1.12822">
        <ele>1</ele>
        <time>2016-01-25T10:39:50.000Z</time>
      </trkpt>
      <trkpt lat="46.11054" lon="-1.12799">
        <ele>3.2000000476837</ele>
        <time>2016-01-25T10:40:02.000Z</time>
      </trkpt>
      <trkpt lat="46.11061" lon="-1.12775">
        <ele>4</ele>
        <time>2016-01-25T10:40:14.000Z</time>
      </trkpt>
      <trkpt lat="46.11067" lon="-1.1275">
        <ele>4</ele>
        <time>2016-01-25T10:40:26.000Z</time>
      </trkpt>
      <trkpt lat="46.11073" lon="-1.12724">
        <ele>3.5999999046326</ele>
        <time>2016-01-25T10:40:38.000Z</time>
      </trkpt>
      <trkpt lat="46.11077" lon="-1.12697">
        <ele>2.5999999046326</ele>
        <time>2016-01-25T10:40:50.000Z</time>
      </trkpt>
      <trkpt lat="46.11083" lon="-1.12672">
        <ele>1.2000000476837</ele>
        <time>2016-01-25T10:41:02.000Z</time>
      </trkpt>
      <trkpt lat="46.11085" lon="-1.12644">
        <ele>-0.40000000596046</ele>
        <time>2016-01-25T10:41:15.000Z</time>
      </trkpt>
      <trkpt lat="46.11085" lon="-1.12619">
        <ele>-0.80000001192093</ele>
        <time>2016-01-25T10:41:26.000Z</time>
      </trkpt>
      <trkpt lat="46.11084" lon="-1.12607">
        <ele>-0.40000000596046</ele>
        <time>2016-01-25T10:41:31.000Z</time>
      </trkpt>
      <trkpt lat="46.11083" lon="-1.12579">
        <ele>0.20000000298023</ele>
        <time>2016-01-25T10:41:43.000Z</time>
      </trkpt>
      <trkpt lat="46.11087" lon="-1.12553">
        <ele>1</ele>
        <time>2016-01-25T10:41:55.000Z</time>
      </trkpt>
      <trkpt lat="46.11098" lon="-1.12532">
        <ele>1</ele>
        <time>2016-01-25T10:42:07.000Z</time>
      </trkpt>
      <trkpt lat="46.11112" lon="-1.12515">
        <ele>1</ele>
        <time>2016-01-25T10:42:18.000Z</time>
      </trkpt>
      <trkpt lat="46.11127" lon="-1.12497">
        <ele>1</ele>
        <time>2016-01-25T10:42:32.000Z</time>
      </trkpt>
      <trkpt lat="46.11142" lon="-1.1248">
        <ele>1</ele>
        <time>2016-01-25T10:42:46.000Z</time>
      </trkpt>
      <trkpt lat="46.11159" lon="-1.12469">
        <ele>1.3999999761581</ele>
        <time>2016-01-25T10:42:59.000Z</time>
      </trkpt>
      <trkpt lat="46.11164" lon="-1.12465">
        <ele>1.6000000238419</ele>
        <time>2016-01-25T10:43:03.000Z</time>
      </trkpt>
      <trkpt lat="46.11166" lon="-1.12463">
        <ele>1.6000000238419</ele>
        <time>2016-01-25T10:43:08.000Z</time>
      </trkpt>
      <trkpt lat="46.11169" lon="-1.12459">
        <ele>1.7999999523163</ele>
        <time>2016-01-25T10:43:35.000Z</time>
      </trkpt>
      <trkpt lat="46.11171" lon="-1.12452">
        <ele>2</ele>
        <time>2016-01-25T10:45:29.000Z</time>
      </trkpt>
      <trkpt lat="46.11171" lon="-1.12453">
        <ele>2</ele>
        <time>2016-01-25T10:48:16.000Z</time>
      </trkpt>
      <trkpt lat="46.11182" lon="-1.1243">
        <ele>2.4000000953674</ele>
        <time>2016-01-25T10:48:29.000Z</time>
      </trkpt>
      <trkpt lat="46.11191" lon="-1.12406">
        <ele>2.7999999523163</ele>
        <time>2016-01-25T10:48:41.000Z</time>
      </trkpt>
      <trkpt lat="46.11202" lon="-1.12384">
        <ele>3</ele>
        <time>2016-01-25T10:48:53.000Z</time>
      </trkpt>
      <trkpt lat="46.11216" lon="-1.12366">
        <ele>3.2000000476837</ele>
        <time>2016-01-25T10:49:05.000Z</time>
      </trkpt>
      <trkpt lat="46.1123" lon="-1.12348">
        <ele>3.4000000953674</ele>
        <time>2016-01-25T10:49:17.000Z</time>
      </trkpt>
      <trkpt lat="46.11243" lon="-1.12329">
        <ele>3</ele>
        <time>2016-01-25T10:49:28.000Z</time>
      </trkpt>
      <trkpt lat="46.11254" lon="-1.12309">
        <ele>2.5999999046326</ele>
        <time>2016-01-25T10:49:42.000Z</time>
      </trkpt>
      <trkpt lat="46.11269" lon="-1.12293">
        <ele>2.4000000953674</ele>
        <time>2016-01-25T10:49:54.000Z</time>
      </trkpt>
      <trkpt lat="46.11276" lon="-1.12283">
        <ele>2.4000000953674</ele>
        <time>2016-01-25T10:50:00.000Z</time>
      </trkpt>
      <trkpt lat="46.11274" lon="-1.12275">
        <ele>2.4000000953674</ele>
        <time>2016-01-25T10:50:05.000Z</time>
      </trkpt>
      <trkpt lat="46.11268" lon="-1.12266">
        <ele>2.4000000953674</ele>
        <time>2016-01-25T10:50:12.000Z</time>
      </trkpt>
      <trkpt lat="46.11272" lon="-1.12254">
        <ele>2.2000000476837</ele>
        <time>2016-01-25T10:50:20.000Z</time>
      </trkpt>
      <trkpt lat="46.11267" lon="-1.12267">
        <ele>2.4000000953674</ele>
        <time>2016-01-25T10:50:38.000Z</time>
      </trkpt>
      <trkpt lat="46.11269" lon="-1.12273">
        <ele>2.4000000953674</ele>
        <time>2016-01-25T10:50:42.000Z</time>
      </trkpt>
      <trkpt lat="46.11272" lon="-1.12276">
        <ele>2.4000000953674</ele>
        <time>2016-01-25T10:50:45.000Z</time>
      </trkpt>
      <trkpt lat="46.11287" lon="-1.12293">
        <ele>2.2000000476837</ele>
        <time>2016-01-25T10:50:59.000Z</time>
      </trkpt>
      <trkpt lat="46.11301" lon="-1.1231">
        <ele>2.2000000476837</ele>
        <time>2016-01-25T10:51:12.000Z</time>
      </trkpt>
      <trkpt lat="46.11314" lon="-1.1233">
        <ele>2</ele>
        <time>2016-01-25T10:51:25.000Z</time>
      </trkpt>
      <trkpt lat="46.11315" lon="-1.12331">
        <ele>2</ele>
        <time>2016-01-25T10:51:26.000Z</time>
      </trkpt>
      <trkpt lat="46.11321" lon="-1.12336">
        <ele>2.2000000476837</ele>
        <time>2016-01-25T10:51:31.000Z</time>
      </trkpt>
      <trkpt lat="46.11339" lon="-1.12338">
        <ele>2.4000000953674</ele>
        <time>2016-01-25T10:51:45.000Z</time>
      </trkpt>
      <trkpt lat="46.11357" lon="-1.12338">
        <ele>2.5999999046326</ele>
        <time>2016-01-25T10:51:57.000Z</time>
      </trkpt>
      <trkpt lat="46.11361" lon="-1.12339">
        <ele>2.5999999046326</ele>
        <time>2016-01-25T10:52:00.000Z</time>
      </trkpt>
      <trkpt lat="46.11364" lon="-1.1235">
        <ele>2.5999999046326</ele>
        <time>2016-01-25T10:52:07.000Z</time>
      </trkpt>
      <trkpt lat="46.11367" lon="-1.12376">
        <ele>2.2000000476837</ele>
        <time>2016-01-25T10:52:19.000Z</time>
      </trkpt>
      <trkpt lat="46.11371" lon="-1.12389">
        <ele>2</ele>
        <time>2016-01-25T10:52:27.000Z</time>
      </trkpt>
      <trkpt lat="46.11373" lon="-1.12383">
        <ele>2.2000000476837</ele>
        <time>2016-01-25T10:52:37.000Z</time>
      </trkpt>
      <trkpt lat="46.11383" lon="-1.12378">
        <ele>2.2000000476837</ele>
        <time>2016-01-25T10:52:45.000Z</time>
      </trkpt>
      <trkpt lat="46.11401" lon="-1.12371">
        <ele>2.2000000476837</ele>
        <time>2016-01-25T10:52:58.000Z</time>
      </trkpt>
      <trkpt lat="46.1142" lon="-1.12365">
        <ele>2</ele>
        <time>2016-01-25T10:53:12.000Z</time>
      </trkpt>
      <trkpt lat="46.11425" lon="-1.12363">
        <ele>2</ele>
        <time>2016-01-25T10:53:16.000Z</time>
      </trkpt>
      <trkpt lat="46.11443" lon="-1.12358">
        <ele>2</ele>
        <time>2016-01-25T10:53:29.000Z</time>
      </trkpt>
      <trkpt lat="46.11461" lon="-1.12353">
        <ele>2</ele>
        <time>2016-01-25T10:53:42.000Z</time>
      </trkpt>
      <trkpt lat="46.1148" lon="-1.12347">
        <ele>2</ele>
        <time>2016-01-25T10:53:56.000Z</time>
      </trkpt>
      <trkpt lat="46.11499" lon="-1.12341">
        <ele>2.2000000476837</ele>
        <time>2016-01-25T10:54:10.000Z</time>
      </trkpt>
      <trkpt lat="46.11516" lon="-1.12349">
        <ele>2.4000000953674</ele>
        <time>2016-01-25T10:54:23.000Z</time>
      </trkpt>
      <trkpt lat="46.11528" lon="-1.12346">
        <ele>2.5999999046326</ele>
        <time>2016-01-25T10:54:32.000Z</time>
      </trkpt>
      <trkpt lat="46.11538" lon="-1.12346">
        <ele>2.5999999046326</ele>
        <time>2016-01-25T10:54:40.000Z</time>
      </trkpt>
      <trkpt lat="46.11556" lon="-1.12342">
        <ele>2.5999999046326</ele>
        <time>2016-01-25T10:54:52.000Z</time>
      </trkpt>
      <trkpt lat="46.11575" lon="-1.12342">
        <ele>2.4000000953674</ele>
        <time>2016-01-25T10:55:05.000Z</time>
      </trkpt>
      <trkpt lat="46.11593" lon="-1.12345">
        <ele>2.2000000476837</ele>
        <time>2016-01-25T10:55:17.000Z</time>
      </trkpt>
      <trkpt lat="46.11611" lon="-1.12341">
        <ele>2</ele>
        <time>2016-01-25T10:55:30.000Z</time>
      </trkpt>
      <trkpt lat="46.11626" lon="-1.12326">
        <ele>2</ele>
        <time>2016-01-25T10:55:42.000Z</time>
      </trkpt>
      <trkpt lat="46.11645" lon="-1.12321">
        <ele>2.2000000476837</ele>
        <time>2016-01-25T10:55:56.000Z</time>
      </trkpt>
      <trkpt lat="46.11663" lon="-1.12321">
        <ele>2.5999999046326</ele>
        <time>2016-01-25T10:56:09.000Z</time>
      </trkpt>
      <trkpt lat="46.11681" lon="-1.12325">
        <ele>3</ele>
        <time>2016-01-25T10:56:22.000Z</time>
      </trkpt>
      <trkpt lat="46.11701" lon="-1.12326">
        <ele>3.5999999046326</ele>
        <time>2016-01-25T10:56:35.000Z</time>
      </trkpt>
      <trkpt lat="46.11719" lon="-1.12325">
        <ele>3.7999999523163</ele>
        <time>2016-01-25T10:56:46.000Z</time>
      </trkpt>
      <trkpt lat="46.11738" lon="-1.12328">
        <ele>4.1999998092651</ele>
        <time>2016-01-25T10:56:57.000Z</time>
      </trkpt>
      <trkpt lat="46.11757" lon="-1.12328">
        <ele>4.1999998092651</ele>
        <time>2016-01-25T10:57:09.000Z</time>
      </trkpt>
      <trkpt lat="46.11774" lon="-1.12333">
        <ele>4.1999998092651</ele>
        <time>2016-01-25T10:57:22.000Z</time>
      </trkpt>
      <trkpt lat="46.11793" lon="-1.12341">
        <ele>4.5999999046326</ele>
        <time>2016-01-25T10:57:35.000Z</time>
      </trkpt>
      <trkpt lat="46.11812" lon="-1.12345">
        <ele>5.1999998092651</ele>
        <time>2016-01-25T10:57:48.000Z</time>
      </trkpt>
      <trkpt lat="46.1183" lon="-1.12351">
        <ele>5.1999998092651</ele>
        <time>2016-01-25T10:58:00.000Z</time>
      </trkpt>
      <trkpt lat="46.11848" lon="-1.12351">
        <ele>5</ele>
        <time>2016-01-25T10:58:13.000Z</time>
      </trkpt>
      <trkpt lat="46.11848" lon="-1.12349">
        <ele>5</ele>
        <time>2016-01-25T10:58:14.000Z</time>
      </trkpt>
      <trkpt lat="46.11855" lon="-1.12323">
        <ele>4</ele>
        <time>2016-01-25T10:58:26.000Z</time>
      </trkpt>
      <trkpt lat="46.11859" lon="-1.12304">
        <ele>3.2000000476837</ele>
        <time>2016-01-25T10:58:36.000Z</time>
      </trkpt>
      <trkpt lat="46.11877" lon="-1.12309">
        <ele>3.2000000476837</ele>
        <time>2016-01-25T10:58:54.000Z</time>
      </trkpt>
      <trkpt lat="46.11895" lon="-1.12317">
        <ele>3.2000000476837</ele>
        <time>2016-01-25T10:59:05.000Z</time>
      </trkpt>
      <trkpt lat="46.11898" lon="-1.12317">
        <ele>3.2000000476837</ele>
        <time>2016-01-25T10:59:07.000Z</time>
      </trkpt>
      <trkpt lat="46.11916" lon="-1.12322">
        <ele>3.2000000476837</ele>
        <time>2016-01-25T10:59:19.000Z</time>
      </trkpt>
      <trkpt lat="46.11918" lon="-1.12322">
        <ele>3.2000000476837</ele>
        <time>2016-01-25T10:59:20.000Z</time>
      </trkpt>
      <trkpt lat="46.11936" lon="-1.12328">
        <ele>3.4000000953674</ele>
        <time>2016-01-25T10:59:32.000Z</time>
      </trkpt>
      <trkpt lat="46.11954" lon="-1.12336">
        <ele>3.4000000953674</ele>
        <time>2016-01-25T10:59:45.000Z</time>
      </trkpt>
      <trkpt lat="46.11973" lon="-1.12343">
        <ele>3.2000000476837</ele>
        <time>2016-01-25T10:59:58.000Z</time>
      </trkpt>
      <trkpt lat="46.1199" lon="-1.12352">
        <ele>3.4000000953674</ele>
        <time>2016-01-25T11:00:10.000Z</time>
      </trkpt>
      <trkpt lat="46.12008" lon="-1.1236">
        <ele>3.4000000953674</ele>
        <time>2016-01-25T11:00:22.000Z</time>
      </trkpt>
      <trkpt lat="46.12025" lon="-1.12369">
        <ele>3.7999999523163</ele>
        <time>2016-01-25T11:00:34.000Z</time>
      </trkpt>
      <trkpt lat="46.12043" lon="-1.12375">
        <ele>4.1999998092651</ele>
        <time>2016-01-25T11:00:46.000Z</time>
      </trkpt>
      <trkpt lat="46.12051" lon="-1.12376">
        <ele>4.1999998092651</ele>
        <time>2016-01-25T11:00:51.000Z</time>
      </trkpt>
      <trkpt lat="46.1207" lon="-1.1238">
        <ele>4.4000000953674</ele>
        <time>2016-01-25T11:01:03.000Z</time>
      </trkpt>
      <trkpt lat="46.12089" lon="-1.12383">
        <ele>4.5999999046326</ele>
        <time>2016-01-25T11:01:16.000Z</time>
      </trkpt>
      <trkpt lat="46.1209" lon="-1.12384">
        <ele>4.5999999046326</ele>
        <time>2016-01-25T11:01:17.000Z</time>
      </trkpt>
      <trkpt lat="46.12097" lon="-1.12387">
        <ele>4.8000001907349</ele>
        <time>2016-01-25T11:01:21.000Z</time>
      </trkpt>
      <trkpt lat="46.12115" lon="-1.12395">
        <ele>5</ele>
        <time>2016-01-25T11:01:34.000Z</time>
      </trkpt>
      <trkpt lat="46.12116" lon="-1.12396">
        <ele>5</ele>
        <time>2016-01-25T11:01:35.000Z</time>
      </trkpt>
      <trkpt lat="46.12123" lon="-1.12401">
        <ele>5</ele>
        <time>2016-01-25T11:01:40.000Z</time>
      </trkpt>
      <trkpt lat="46.12141" lon="-1.12412">
        <ele>5.1999998092651</ele>
        <time>2016-01-25T11:01:52.000Z</time>
      </trkpt>
      <trkpt lat="46.12148" lon="-1.12417">
        <ele>5.1999998092651</ele>
        <time>2016-01-25T11:01:57.000Z</time>
      </trkpt>
      <trkpt lat="46.12165" lon="-1.12428">
        <ele>4.5999999046326</ele>
        <time>2016-01-25T11:02:10.000Z</time>
      </trkpt>
      <trkpt lat="46.12182" lon="-1.12437">
        <ele>4.1999998092651</ele>
        <time>2016-01-25T11:02:22.000Z</time>
      </trkpt>
      <trkpt lat="46.12193" lon="-1.12443">
        <ele>4</ele>
        <time>2016-01-25T11:02:30.000Z</time>
      </trkpt>
      <trkpt lat="46.1221" lon="-1.12452">
        <ele>3.7999999523163</ele>
        <time>2016-01-25T11:02:42.000Z</time>
      </trkpt>
      <trkpt lat="46.12227" lon="-1.12462">
        <ele>3.5999999046326</ele>
        <time>2016-01-25T11:02:54.000Z</time>
      </trkpt>
      <trkpt lat="46.12239" lon="-1.12468">
        <ele>3.5999999046326</ele>
        <time>2016-01-25T11:03:02.000Z</time>
      </trkpt>
      <trkpt lat="46.12247" lon="-1.12472">
        <ele>3.4000000953674</ele>
        <time>2016-01-25T11:03:08.000Z</time>
      </trkpt>
      <trkpt lat="46.12265" lon="-1.12482">
        <ele>3</ele>
        <time>2016-01-25T11:03:20.000Z</time>
      </trkpt>
      <trkpt lat="46.12283" lon="-1.12488">
        <ele>2.5999999046326</ele>
        <time>2016-01-25T11:03:33.000Z</time>
      </trkpt>
      <trkpt lat="46.12291" lon="-1.1249">
        <ele>2.2000000476837</ele>
        <time>2016-01-25T11:03:38.000Z</time>
      </trkpt>
      <trkpt lat="46.12297" lon="-1.12495">
        <ele>2.2000000476837</ele>
        <time>2016-01-25T11:03:42.000Z</time>
      </trkpt>
      <trkpt lat="46.12309" lon="-1.12497">
        <ele>2.2000000476837</ele>
        <time>2016-01-25T11:03:50.000Z</time>
      </trkpt>
      <trkpt lat="46.1232" lon="-1.12505">
        <ele>2.4000000953674</ele>
        <time>2016-01-25T11:03:58.000Z</time>
      </trkpt>
      <trkpt lat="46.12338" lon="-1.12514">
        <ele>2.4000000953674</ele>
        <time>2016-01-25T11:04:10.000Z</time>
      </trkpt>
      <trkpt lat="46.12355" lon="-1.12525">
        <ele>2.5999999046326</ele>
        <time>2016-01-25T11:04:22.000Z</time>
      </trkpt>
      <trkpt lat="46.12372" lon="-1.12534">
        <ele>3.2000000476837</ele>
        <time>2016-01-25T11:04:34.000Z</time>
      </trkpt>
      <trkpt lat="46.1239" lon="-1.12545">
        <ele>3.5999999046326</ele>
        <time>2016-01-25T11:04:46.000Z</time>
      </trkpt>
      <trkpt lat="46.12406" lon="-1.12557">
        <ele>4</ele>
        <time>2016-01-25T11:04:58.000Z</time>
      </trkpt>
      <trkpt lat="46.12411" lon="-1.1256">
        <ele>4</ele>
        <time>2016-01-25T11:05:02.000Z</time>
      </trkpt>
      <trkpt lat="46.12428" lon="-1.12572">
        <ele>4</ele>
        <time>2016-01-25T11:05:15.000Z</time>
      </trkpt>
      <trkpt lat="46.12445" lon="-1.12583">
        <ele>4</ele>
        <time>2016-01-25T11:05:28.000Z</time>
      </trkpt>
      <trkpt lat="46.12449" lon="-1.12585">
        <ele>4</ele>
        <time>2016-01-25T11:05:31.000Z</time>
      </trkpt>
      <trkpt lat="46.12456" lon="-1.12591">
        <ele>4</ele>
        <time>2016-01-25T11:05:36.000Z</time>
      </trkpt>
      <trkpt lat="46.12473" lon="-1.12603">
        <ele>4</ele>
        <time>2016-01-25T11:05:48.000Z</time>
      </trkpt>
      <trkpt lat="46.12475" lon="-1.12604">
        <ele>4</ele>
        <time>2016-01-25T11:05:50.000Z</time>
      </trkpt>
      <trkpt lat="46.12492" lon="-1.12618">
        <ele>3.5999999046326</ele>
        <time>2016-01-25T11:06:02.000Z</time>
      </trkpt>
      <trkpt lat="46.12501" lon="-1.12624">
        <ele>3.4000000953674</ele>
        <time>2016-01-25T11:06:08.000Z</time>
      </trkpt>
      <trkpt lat="46.12518" lon="-1.12633">
        <ele>3.4000000953674</ele>
        <time>2016-01-25T11:06:20.000Z</time>
      </trkpt>
      <trkpt lat="46.12535" lon="-1.12644">
        <ele>3.2000000476837</ele>
        <time>2016-01-25T11:06:33.000Z</time>
      </trkpt>
      <trkpt lat="46.12552" lon="-1.12656">
        <ele>3</ele>
        <time>2016-01-25T11:06:46.000Z</time>
      </trkpt>
      <trkpt lat="46.12568" lon="-1.12668">
        <ele>2.5999999046326</ele>
        <time>2016-01-25T11:06:57.000Z</time>
      </trkpt>
      <trkpt lat="46.12582" lon="-1.12681">
        <ele>2</ele>
        <time>2016-01-25T11:07:08.000Z</time>
      </trkpt>
      <trkpt lat="46.12588" lon="-1.12698">
        <ele>1.6000000238419</ele>
        <time>2016-01-25T11:07:17.000Z</time>
      </trkpt>
      <trkpt lat="46.12605" lon="-1.12711">
        <ele>2.2000000476837</ele>
        <time>2016-01-25T11:07:28.000Z</time>
      </trkpt>
      <trkpt lat="46.12621" lon="-1.12725">
        <ele>2.5999999046326</ele>
        <time>2016-01-25T11:07:39.000Z</time>
      </trkpt>
      <trkpt lat="46.12635" lon="-1.12743">
        <ele>3</ele>
        <time>2016-01-25T11:07:51.000Z</time>
      </trkpt>
      <trkpt lat="46.12647" lon="-1.12765">
        <ele>3.4000000953674</ele>
        <time>2016-01-25T11:08:03.000Z</time>
      </trkpt>
      <trkpt lat="46.1266" lon="-1.12785">
        <ele>3.7999999523163</ele>
        <time>2016-01-25T11:08:15.000Z</time>
      </trkpt>
      <trkpt lat="46.12669" lon="-1.12808">
        <ele>4</ele>
        <time>2016-01-25T11:08:26.000Z</time>
      </trkpt>
      <trkpt lat="46.12681" lon="-1.12827">
        <ele>3.7999999523163</ele>
        <time>2016-01-25T11:08:37.000Z</time>
      </trkpt>
      <trkpt lat="46.12697" lon="-1.12839">
        <ele>3.5999999046326</ele>
        <time>2016-01-25T11:08:49.000Z</time>
      </trkpt>
      <trkpt lat="46.12715" lon="-1.12846">
        <ele>3.5999999046326</ele>
        <time>2016-01-25T11:09:02.000Z</time>
      </trkpt>
      <trkpt lat="46.12733" lon="-1.1285">
        <ele>3.4000000953674</ele>
        <time>2016-01-25T11:09:18.000Z</time>
      </trkpt>
      <trkpt lat="46.12746" lon="-1.12868">
        <ele>3</ele>
        <time>2016-01-25T11:09:44.000Z</time>
      </trkpt>
      <trkpt lat="46.12742" lon="-1.12889">
        <ele>3</ele>
        <time>2016-01-25T11:10:33.000Z</time>
      </trkpt>
      <trkpt lat="46.12743" lon="-1.12882">
        <ele>3</ele>
        <time>2016-01-25T11:10:40.000Z</time>
      </trkpt>
      <trkpt lat="46.12751" lon="-1.12872">
        <ele>3</ele>
        <time>2016-01-25T11:10:44.000Z</time>
      </trkpt>
      <trkpt lat="46.12768" lon="-1.1286">
        <ele>3</ele>
        <time>2016-01-25T11:10:52.000Z</time>
      </trkpt>
      <trkpt lat="46.12764" lon="-1.12877">
        <ele>3</ele>
        <time>2016-01-25T11:11:02.000Z</time>
      </trkpt>
      <trkpt lat="46.12762" lon="-1.1288">
        <ele>3</ele>
        <time>2016-01-25T11:11:05.000Z</time>
      </trkpt>
      <trkpt lat="46.12756" lon="-1.12881">
        <ele>3</ele>
        <time>2016-01-25T11:11:07.000Z</time>
      </trkpt>
      <trkpt lat="46.12749" lon="-1.12871">
        <ele>3</ele>
        <time>2016-01-25T11:11:12.000Z</time>
      </trkpt>
      <trkpt lat="46.12748" lon="-1.12868">
        <ele>3</ele>
        <time>2016-01-25T11:11:23.000Z</time>
      </trkpt>
      <trkpt lat="46.12743" lon="-1.12862">
        <ele>3.2000000476837</ele>
        <time>2016-01-25T11:11:29.000Z</time>
      </trkpt>
      <trkpt lat="46.12741" lon="-1.1286">
        <ele>3.2000000476837</ele>
        <time>2016-01-25T11:11:40.000Z</time>
      </trkpt>
    </trkseg>
  </trk>
</gpx>